Time;durP1;ratioP1;P1;durP2;ratioP2;P2;SDS_P1;SDS_P2;PMS_P1;PMS_P2;Temp;Humidity;BMP_temperature;BMP_pressure;BME280_temperature;BME280_humidity;BME280_pressure;Samples;Min_cycle;Max_cycle;Signal;HPM_P1;HPM_P2
2021/03/23 00:00:43;;;;;;;5.87;5.13;;;8.00;99.90;;;;;;5053339;28;20316;-50
2021/03/23 00:03:38;;;;;;;8.87;5.90;;;7.90;99.90;;;;;;5034314;28;20221;-48
2021/03/23 00:06:06;;;;;;;7.40;5.90;;;7.70;99.90;;;;;;5043803;28;20795;-49
2021/03/23 00:08:37;;;;;;;11.13;6.23;;;7.70;99.90;;;;;;5057049;28;20641;-49
2021/03/23 00:11:12;;;;;;;12.37;6.43;;;7.80;99.90;;;;;;5041590;28;20250;-48
2021/03/23 00:13:41;;;;;;;11.10;6.67;;;7.90;99.90;;;;;;5058207;28;20216;-48
2021/03/23 00:16:07;;;;;;;9.20;5.73;;;7.80;99.90;;;;;;5038678;28;20228;-49
2021/03/23 00:18:34;;;;;;;11.43;6.40;;;7.80;99.90;;;;;;5042514;28;20207;-48
2021/03/23 00:21:02;;;;;;;10.33;6.47;;;7.60;99.90;;;;;;5054111;28;20258;-49
2021/03/23 00:23:28;;;;;;;9.83;6.80;;;7.60;99.90;;;;;;5039884;28;20202;-49
2021/03/23 00:25:54;;;;;;;8.47;6.43;;;7.40;99.90;;;;;;5056131;28;20290;-49
2021/03/23 00:28:23;;;;;;;13.13;6.63;;;7.30;99.90;;;;;;5039707;28;20632;-48
2021/03/23 00:30:52;;;;;;;13.83;8.13;;;7.10;99.90;;;;;;5059305;28;20295;-49
2021/03/23 00:33:19;;;;;;;11.03;7.13;;;6.90;99.90;;;;;;5059107;28;20368;-49
2021/03/23 00:35:46;;;;;;;9.57;6.67;;;7.00;99.90;;;;;;5059369;28;20288;-48
2021/03/23 00:38:14;;;;;;;12.20;7.27;;;7.20;99.90;;;;;;5060614;28;20677;-49
2021/03/23 00:40:41;;;;;;;12.07;6.87;;;7.30;99.90;;;;;;5058819;28;20292;-50
2021/03/23 00:43:08;;;;;;;9.63;6.53;;;7.30;99.90;;;;;;5059934;28;20284;-49
2021/03/23 00:45:41;;;;;;;13.90;7.50;;;7.30;99.90;;;;;;5046364;28;20293;-50
2021/03/23 00:48:09;;;;;;;10.40;7.47;;;7.40;99.90;;;;;;5058944;28;20656;-50
2021/03/23 00:50:35;;;;;;;14.03;7.43;;;7.60;99.90;;;;;;5042663;28;20648;-50
2021/03/23 00:53:02;;;;;;;12.17;8.13;;;7.60;99.90;;;;;;5060429;28;20295;-49
2021/03/23 00:55:28;;;;;;;11.37;8.57;;;7.80;99.90;;;;;;5060112;28;20199;-49
2021/03/23 00:57:55;;;;;;;17.37;9.47;;;7.80;99.90;;;;;;5060917;28;20241;-49
2021/03/23 01:00:22;;;;;;;13.47;8.53;;;7.60;99.90;;;;;;5059942;28;20235;-50
2021/03/23 01:02:49;;;;;;;13.80;9.77;;;7.60;99.90;;;;;;5057829;28;20203;-50
2021/03/23 01:05:18;;;;;;;14.97;10.17;;;7.60;99.90;;;;;;5056919;28;20873;-50
2021/03/23 01:07:44;;;;;;;13.43;9.70;;;7.50;99.90;;;;;;5058645;28;20259;-50
2021/03/23 01:10:14;;;;;;;15.13;9.70;;;7.60;99.90;;;;;;5057198;28;20286;-51
2021/03/23 01:12:41;;;;;;;15.53;10.87;;;7.50;99.90;;;;;;5061087;28;20662;-51
2021/03/23 01:15:10;;;;;;;13.20;9.97;;;7.40;99.90;;;;;;5061460;28;20273;-50
2021/03/23 01:17:36;;;;;;;15.30;10.97;;;7.40;99.90;;;;;;5057305;28;20667;-49
2021/03/23 01:20:09;;;;;;;16.67;10.67;;;7.30;99.90;;;;;;5057440;28;20243;-50
2021/03/23 01:22:35;;;;;;;15.33;10.30;;;7.20;99.90;;;;;;5041024;28;20688;-50
2021/03/23 01:25:01;;;;;;;19.23;11.97;;;7.20;99.90;;;;;;5060388;28;20319;-50
2021/03/23 01:27:28;;;;;;;20.60;12.40;;;7.00;99.90;;;;;;5057360;28;20249;-51
2021/03/23 01:29:54;;;;;;;18.70;11.50;;;7.00;99.90;;;;;;5059858;28;20667;-50
2021/03/23 01:32:20;;;;;;;16.80;12.13;;;7.20;99.90;;;;;;5055259;28;20199;-49
2021/03/23 01:34:48;;;;;;;17.50;12.00;;;7.40;99.90;;;;;;5058572;28;20216;-51
2021/03/23 01:37:15;;;;;;;21.80;12.13;;;7.30;99.90;;;;;;5056410;28;20208;-50
2021/03/23 01:39:42;;;;;;;16.60;11.57;;;7.30;99.90;;;;;;5058662;28;20195;-49
2021/03/23 01:42:11;;;;;;;14.07;11.00;;;7.40;99.90;;;;;;5056848;28;20270;-49
2021/03/23 01:44:40;;;;;;;18.80;11.90;;;7.30;99.90;;;;;;5061589;28;20202;-51
2021/03/23 01:47:06;;;;;;;16.80;10.73;;;7.10;99.90;;;;;;5059462;28;20487;-49
2021/03/23 01:49:43;;;;;;;16.47;12.03;;;7.30;99.90;;;;;;5040914;28;20637;-50
2021/03/23 01:52:15;;;;;;;18.50;12.50;;;7.50;99.90;;;;;;5058885;28;20253;-50
2021/03/23 01:55:02;;;;;;;17.83;11.10;;;7.20;99.90;;;;;;5060997;28;20340;-49
2021/03/23 01:57:30;;;;;;;16.77;11.10;;;7.30;99.90;;;;;;5059070;28;20201;-49
2021/03/23 01:59:59;;;;;;;16.40;11.37;;;7.00;99.90;;;;;;5058821;28;20197;-49
2021/03/23 02:02:28;;;;;;;17.50;11.17;;;7.00;99.90;;;;;;5056864;28;20215;-50
2021/03/23 02:05:08;;;;;;;19.13;10.80;;;7.00;99.90;;;;;;5057410;28;20211;-50
2021/03/23 02:07:34;;;;;;;16.60;10.53;;;6.80;99.90;;;;;;5057844;28;20251;-50
2021/03/23 02:10:02;;;;;;;14.43;10.47;;;6.80;99.90;;;;;;5059902;28;20631;-50
2021/03/23 02:12:30;;;;;;;16.67;11.27;;;6.80;99.90;;;;;;5059660;28;20208;-48
2021/03/23 02:14:57;;;;;;;15.93;10.40;;;6.90;99.90;;;;;;5058691;28;20257;-49
2021/03/23 02:17:34;;;;;;;17.57;10.27;;;6.90;99.90;;;;;;5057410;28;20201;-50
2021/03/23 02:20:07;;;;;;;18.43;11.47;;;6.90;99.90;;;;;;5057258;28;20203;-49
2021/03/23 02:22:39;;;;;;;14.87;10.10;;;6.90;99.90;;;;;;5058902;28;20771;-48
2021/03/23 02:25:10;;;;;;;16.50;10.67;;;6.80;99.90;;;;;;5058559;28;20239;-51
2021/03/23 02:27:37;;;;;;;19.23;11.13;;;6.70;99.90;;;;;;5060231;28;20369;-50
2021/03/23 02:30:07;;;;;;;16.17;11.00;;;6.70;99.90;;;;;;5043270;28;20232;-50
2021/03/23 02:32:33;;;;;;;19.90;11.17;;;6.70;99.90;;;;;;5059002;28;20203;-50
2021/03/23 02:35:00;;;;;;;17.40;11.03;;;6.70;99.90;;;;;;5053754;28;20209;-49
2021/03/23 02:37:26;;;;;;;16.00;10.37;;;6.90;99.90;;;;;;5059226;28;20196;-49
2021/03/23 02:39:53;;;;;;;16.50;10.33;;;6.90;99.90;;;;;;5057577;28;20196;-49
2021/03/23 02:42:19;;;;;;;14.83;10.80;;;7.10;99.90;;;;;;5026521;28;20200;-50
2021/03/23 02:44:47;;;;;;;17.63;10.70;;;6.90;99.90;;;;;;5057700;28;20622;-49
2021/03/23 02:47:16;;;;;;;17.43;10.30;;;6.90;99.90;;;;;;5056444;28;20231;-49
2021/03/23 02:49:43;;;;;;;15.47;10.43;;;6.90;99.90;;;;;;5056031;28;20594;-49
2021/03/23 02:52:11;;;;;;;16.53;10.63;;;6.80;99.90;;;;;;5042362;28;20711;-51
2021/03/23 02:54:39;;;;;;;18.33;11.20;;;6.70;99.90;;;;;;5055191;28;20220;-49
2021/03/23 02:57:06;;;;;;;21.00;11.57;;;6.60;99.90;;;;;;5057072;28;20230;-50
2021/03/23 02:59:33;;;;;;;18.07;10.23;;;6.60;99.90;;;;;;5057977;28;20595;-49
2021/03/23 03:01:59;;;;;;;15.63;10.33;;;6.70;99.90;;;;;;5056898;28;20200;-49
2021/03/23 03:04:26;;;;;;;16.93;11.20;;;6.80;99.90;;;;;;5055936;28;20256;-50
2021/03/23 03:06:53;;;;;;;18.90;10.40;;;6.90;99.90;;;;;;5057241;28;20199;-50
2021/03/23 03:09:19;;;;;;;16.20;10.80;;;7.00;99.90;;;;;;5053921;28;20320;-49
2021/03/23 03:11:45;;;;;;;16.43;10.50;;;6.80;99.90;;;;;;5040938;28;20264;-50
2021/03/23 03:14:12;;;;;;;18.03;11.03;;;6.80;99.90;;;;;;5040784;28;20222;-50
2021/03/23 03:16:38;;;;;;;18.63;10.33;;;6.80;99.90;;;;;;5037693;28;20768;-49
2021/03/23 03:19:04;;;;;;;19.70;10.37;;;6.80;99.90;;;;;;5055764;28;20209;-49
2021/03/23 03:21:31;;;;;;;16.77;10.27;;;6.80;99.90;;;;;;5053922;28;20195;-49
2021/03/23 03:23:57;;;;;;;16.00;9.73;;;6.70;99.90;;;;;;5057020;28;20260;-48
2021/03/23 03:26:23;;;;;;;16.80;10.63;;;6.90;99.90;;;;;;5056530;28;20272;-48
2021/03/23 03:28:50;;;;;;;17.70;11.40;;;6.80;99.90;;;;;;5037255;28;20606;-48
2021/03/23 03:31:22;;;;;;;16.83;10.10;;;6.90;99.90;;;;;;5040798;28;20649;-49
2021/03/23 03:33:54;;;;;;;22.30;10.53;;;6.80;99.90;;;;;;5056519;28;20274;-48
2021/03/23 03:36:22;;;;;;;15.97;10.67;;;6.80;99.90;;;;;;5056494;28;20204;-47
2021/03/23 03:38:49;;;;;;;17.30;10.13;;;6.80;99.90;;;;;;5057382;28;20257;-47
2021/03/23 03:41:16;;;;;;;16.77;9.97;;;6.70;99.90;;;;;;5038334;28;20717;-48
2021/03/23 03:43:43;;;;;;;21.77;9.37;;;6.80;99.90;;;;;;5055391;28;20229;-49
2021/03/23 03:46:10;;;;;;;18.03;9.57;;;6.70;99.90;;;;;;5056380;28;20214;-48
2021/03/23 03:48:37;;;;;;;18.03;10.57;;;6.70;99.90;;;;;;5054097;28;20208;-48
2021/03/23 03:51:05;;;;;;;16.80;9.70;;;6.80;99.90;;;;;;5052883;28;20199;-49
2021/03/23 03:53:32;;;;;;;18.40;9.77;;;6.90;99.90;;;;;;5058172;28;20440;-49
2021/03/23 03:55:59;;;;;;;13.97;9.63;;;6.90;99.90;;;;;;5056184;28;20256;-49
2021/03/23 03:58:25;;;;;;;21.60;9.90;;;7.00;99.90;;;;;;5056245;28;20250;-49
2021/03/23 04:00:51;;;;;;;20.87;9.60;;;7.00;99.90;;;;;;5048277;28;20199;-49
2021/03/23 04:03:27;;;;;;;16.37;10.17;;;7.00;99.90;;;;;;5032977;28;20210;-49
2021/03/23 04:05:56;;;;;;;16.53;9.60;;;7.00;99.90;;;;;;5052609;28;20214;-50
2021/03/23 04:08:28;;;;;;;16.70;9.47;;;7.10;99.90;;;;;;5054698;28;20230;-50
2021/03/23 04:10:57;;;;;;;17.47;9.50;;;6.90;99.90;;;;;;5055245;28;20256;-49
2021/03/23 04:13:24;;;;;;;15.70;9.33;;;6.90;99.90;;;;;;5038680;28;20252;-49
2021/03/23 04:15:51;;;;;;;17.90;10.00;;;6.90;99.90;;;;;;5056566;28;20216;-49
2021/03/23 04:18:22;;;;;;;18.00;9.33;;;6.80;99.90;;;;;;5053856;28;20310;-49
2021/03/23 04:20:49;;;;;;;20.43;10.47;;;6.90;99.90;;;;;;5037588;28;20196;-48
2021/03/23 04:23:23;;;;;;;19.00;9.93;;;6.90;99.90;;;;;;5054570;28;20222;-50
2021/03/23 04:25:49;;;;;;;17.43;10.50;;;6.80;99.90;;;;;;5056868;28;20234;-50
2021/03/23 04:28:16;;;;;;;20.47;10.17;;;6.90;99.90;;;;;;5055685;28;20235;-49
2021/03/23 04:30:43;;;;;;;17.40;9.20;;;7.00;99.90;;;;;;5056507;28;20505;-49
2021/03/23 04:33:10;;;;;;;17.60;9.37;;;7.00;99.90;;;;;;5039103;28;20539;-52
2021/03/23 04:35:44;;;;;;;18.13;10.03;;;7.00;99.90;;;;;;5055398;28;20215;-50
2021/03/23 04:38:14;;;;;;;19.53;9.93;;;6.80;99.90;;;;;;5056244;28;20534;-50
2021/03/23 04:40:40;;;;;;;22.70;9.77;;;6.90;99.90;;;;;;5056333;28;20280;-50
2021/03/23 04:43:08;;;;;;;22.07;10.20;;;6.90;99.90;;;;;;5041673;28;20191;-50
2021/03/23 04:45:34;;;;;;;18.10;9.27;;;6.90;99.90;;;;;;5058418;28;20207;-50
2021/03/23 04:48:01;;;;;;;18.67;10.27;;;6.90;99.90;;;;;;5037710;28;20301;-49
2021/03/23 04:50:27;;;;;;;18.93;9.97;;;7.00;99.90;;;;;;5045802;28;20664;-48
2021/03/23 04:52:53;;;;;;;21.37;10.23;;;6.90;99.90;;;;;;5046455;28;20234;-50
2021/03/23 04:55:20;;;;;;;19.13;9.37;;;6.90;99.90;;;;;;5057286;28;20226;-49
2021/03/23 04:57:46;;;;;;;17.53;9.87;;;6.90;99.90;;;;;;5056952;28;20541;-49
2021/03/23 05:00:14;;;;;;;17.63;9.50;;;7.00;99.90;;;;;;5041087;28;20204;-48
2021/03/23 05:02:41;;;;;;;21.77;10.10;;;6.90;99.90;;;;;;5056724;28;20225;-49
2021/03/23 05:05:10;;;;;;;16.87;10.27;;;7.00;99.90;;;;;;5053947;28;20212;-50
2021/03/23 05:07:37;;;;;;;16.97;9.60;;;6.90;99.90;;;;;;5053490;28;20207;-51
2021/03/23 05:10:06;;;;;;;16.97;9.67;;;6.90;99.90;;;;;;5053463;28;20315;-48
2021/03/23 05:12:32;;;;;;;15.80;8.73;;;6.90;99.90;;;;;;5057341;28;20510;-49
2021/03/23 05:14:59;;;;;;;20.30;10.70;;;7.00;99.90;;;;;;5056819;28;20216;-50
2021/03/23 05:17:25;;;;;;;24.70;10.27;;;7.00;99.90;;;;;;5060708;28;20562;-50
2021/03/23 05:19:52;;;;;;;17.10;9.43;;;7.40;99.90;;;;;;5057725;28;20221;-49
2021/03/23 05:22:18;;;;;;;18.47;9.83;;;7.50;99.90;;;;;;5055655;28;20195;-51
2021/03/23 05:24:44;;;;;;;19.93;10.77;;;7.30;99.90;;;;;;5059284;28;20266;-49
2021/03/23 05:27:11;;;;;;;18.63;10.03;;;7.10;99.90;;;;;;5058136;28;20270;-49
2021/03/23 05:29:37;;;;;;;20.67;10.30;;;7.10;99.90;;;;;;5058750;28;20232;-50
2021/03/23 05:32:04;;;;;;;16.50;9.93;;;7.20;99.90;;;;;;5056985;28;20208;-50
2021/03/23 05:34:30;;;;;;;14.60;9.57;;;7.10;99.90;;;;;;5055556;28;20247;-50
2021/03/23 05:36:57;;;;;;;19.53;10.03;;;7.00;99.90;;;;;;5046792;28;20235;-50
2021/03/23 05:39:23;;;;;;;19.60;9.73;;;6.90;99.90;;;;;;5059893;28;20860;-48
2021/03/23 05:42:04;;;;;;;19.10;9.67;;;6.90;99.90;;;;;;5060142;28;20287;-51
2021/03/23 05:44:55;;;;;;;21.67;9.97;;;7.00;99.90;;;;;;5058630;28;20292;-50
2021/03/23 05:47:30;;;;;;;15.57;9.93;;;7.10;99.90;;;;;;5059866;28;20619;-51
2021/03/23 05:50:17;;;;;;;24.57;10.97;;;7.10;99.90;;;;;;5056422;28;20632;-50
2021/03/23 05:52:46;;;;;;;17.63;10.17;;;7.10;99.90;;;;;;5057477;28;20605;-49
2021/03/23 05:55:33;;;;;;;20.07;10.20;;;7.00;99.90;;;;;;5056970;28;20654;-50
2021/03/23 05:58:01;;;;;;;21.37;10.87;;;7.10;99.90;;;;;;5058502;28;20225;-49
2021/03/23 06:00:32;;;;;;;18.07;10.00;;;7.00;99.90;;;;;;5039064;28;20221;-49
2021/03/23 06:03:18;;;;;;;23.57;10.93;;;6.90;99.90;;;;;;5059295;28;20203;-50
2021/03/23 06:06:12;;;;;;;22.07;10.20;;;6.80;99.90;;;;;;5055439;28;20233;-49
2021/03/23 06:08:38;;;;;;;20.90;10.73;;;6.90;99.90;;;;;;5058604;28;20286;-49
2021/03/23 06:11:38;;;;;;;18.53;10.80;;;6.80;99.90;;;;;;5055471;28;20652;-49
2021/03/23 06:14:16;;;;;;;22.23;10.70;;;6.80;99.90;;;;;;5060353;28;20742;-49
2021/03/23 06:17:08;;;;;;;20.10;11.37;;;6.80;99.90;;;;;;5057317;28;20251;-49
2021/03/23 06:19:54;;;;;;;20.53;10.23;;;6.80;99.90;;;;;;5056894;28;20468;-50
2021/03/23 06:22:54;;;;;;;19.87;10.87;;;6.80;99.90;;;;;;5056712;28;20206;-50
2021/03/23 06:25:25;;;;;;;20.93;10.67;;;6.80;99.90;;;;;;5059993;28;20203;-50
2021/03/23 06:28:25;;;;;;;17.77;10.13;;;6.80;99.90;;;;;;5056872;28;21173;-51
2021/03/23 06:31:29;;;;;;;24.20;11.10;;;6.90;99.90;;;;;;5042397;28;20234;-49
2021/03/23 06:33:56;;;;;;;22.47;11.93;;;6.80;99.90;;;;;;5035847;28;20379;-49
2021/03/23 06:36:29;;;;;;;19.10;10.13;;;6.80;99.90;;;;;;5057012;28;20656;-50
2021/03/23 06:38:55;;;;;;;18.73;10.60;;;7.00;99.90;;;;;;5041284;28;20201;-50
2021/03/23 06:41:30;;;;;;;25.93;11.63;;;7.00;99.90;;;;;;5056473;28;20200;-50
2021/03/23 06:44:13;;;;;;;23.23;12.03;;;6.90;99.90;;;;;;5047606;28;20563;-48
2021/03/23 06:46:42;;;;;;;29.03;11.63;;;7.00;99.90;;;;;;5058138;28;20206;-48
2021/03/23 06:49:15;;;;;;;22.90;12.67;;;7.10;99.90;;;;;;5053345;28;20208;-49
2021/03/23 06:51:53;;;;;;;20.17;10.40;;;7.30;99.90;;;;;;5055222;28;20827;-50
2021/03/23 06:54:36;;;;;;;23.80;10.53;;;7.30;99.90;;;;;;5059290;28;20676;-50
2021/03/23 06:57:11;;;;;;;20.60;11.87;;;7.30;99.90;;;;;;5054827;28;20705;-50
2021/03/23 07:00:15;;;;;;;22.97;12.20;;;7.30;99.90;;;;;;5048673;28;20203;-49
2021/03/23 07:02:48;;;;;;;29.50;13.23;;;7.40;99.90;;;;;;5055874;28;20680;-49
2021/03/23 07:05:29;;;;;;;25.83;13.33;;;7.40;99.90;;;;;;5043310;28;20214;-55
2021/03/23 07:08:08;;;;;;;28.13;13.17;;;7.30;99.90;;;;;;5053092;28;21516;-50
2021/03/23 07:10:42;;;;;;;24.63;13.77;;;7.40;99.90;;;;;;5051080;28;20725;-50
2021/03/23 07:13:27;;;;;;;27.03;13.83;;;7.50;99.90;;;;;;5055846;28;20207;-50
2021/03/23 07:16:05;;;;;;;29.60;14.60;;;7.30;99.90;;;;;;5042793;28;20220;-50
2021/03/23 07:18:38;;;;;;;34.13;17.03;;;7.40;99.90;;;;;;5057214;28;20204;-50
2021/03/23 07:21:22;;;;;;;35.43;17.47;;;7.30;99.90;;;;;;5058641;28;20298;-50
2021/03/23 07:24:15;;;;;;;43.90;19.00;;;7.40;99.90;;;;;;5056933;28;20673;-50
2021/03/23 07:27:03;;;;;;;38.47;20.17;;;7.50;99.90;;;;;;5059570;28;20228;-51
2021/03/23 07:29:34;;;;;;;41.23;19.27;;;7.30;99.90;;;;;;5056352;28;20608;-50
2021/03/23 07:32:09;;;;;;;46.10;21.40;;;7.40;99.90;;;;;;5056288;28;20213;-49
2021/03/23 07:34:59;;;;;;;42.17;21.33;;;7.60;99.90;;;;;;5056041;28;20251;-50
2021/03/23 07:37:40;;;;;;;55.97;24.07;;;7.50;99.90;;;;;;5056694;28;20207;-50
2021/03/23 07:40:31;;;;;;;43.73;22.40;;;7.40;99.90;;;;;;5047761;28;20270;-50
2021/03/23 07:43:05;;;;;;;44.87;21.37;;;7.60;99.90;;;;;;5055418;28;20674;-50
2021/03/23 07:45:49;;;;;;;51.73;23.03;;;7.50;99.90;;;;;;5044281;28;20573;-50
2021/03/23 07:48:34;;;;;;;41.77;20.77;;;7.60;99.90;;;;;;5056154;28;20672;-50
2021/03/23 07:51:18;;;;;;;46.67;22.93;;;7.50;99.90;;;;;;5055202;28;20304;-50
2021/03/23 07:53:44;;;;;;;46.33;22.97;;;7.50;99.90;;;;;;5050610;28;20209;-48
2021/03/23 07:56:20;;;;;;;55.47;24.90;;;7.70;99.90;;;;;;5038151;28;20203;-51
2021/03/23 07:59:19;;;;;;;53.03;25.00;;;7.80;99.90;;;;;;5056145;28;20258;-50
2021/03/23 08:02:13;;;;;;;52.30;24.87;;;7.90;99.90;;;;;;5056919;28;20243;-50
2021/03/23 08:05:07;;;;;;;45.47;24.27;;;8.00;99.90;;;;;;5053649;28;20204;-50
2021/03/23 08:07:52;;;;;;;48.53;23.00;;;8.50;99.90;;;;;;5055994;28;20200;-50
2021/03/23 08:10:44;;;;;;;45.83;23.77;;;8.50;99.90;;;;;;5049573;28;20240;-49
2021/03/23 08:13:42;;;;;;;48.80;25.30;;;8.50;99.90;;;;;;5038581;28;20208;-50
2021/03/23 08:16:27;;;;;;;51.23;24.97;;;8.90;99.90;;;;;;5054232;28;20269;-50
2021/03/23 08:19:06;;;;;;;47.03;24.37;;;9.00;99.90;;;;;;5054998;28;20638;-50
2021/03/23 08:22:09;;;;;;;53.13;24.63;;;9.30;99.90;;;;;;5050257;28;20208;-50
2021/03/23 08:24:44;;;;;;;44.27;24.00;;;9.10;99.90;;;;;;5051970;28;20240;-50
2021/03/23 08:27:32;;;;;;;47.23;24.43;;;9.70;99.90;;;;;;5053302;28;20220;-50
2021/03/23 08:30:30;;;;;;;41.47;23.10;;;9.60;99.90;;;;;;5054329;28;20207;-50
2021/03/23 08:33:02;;;;;;;40.53;24.73;;;9.10;99.90;;;;;;5052851;28;20324;-50
2021/03/23 08:36:05;;;;;;;47.60;23.63;;;9.30;99.90;;;;;;5051140;28;20247;-51
2021/03/23 08:38:52;;;;;;;40.70;23.83;;;9.10;99.90;;;;;;5022508;28;20199;-51
2021/03/23 08:41:34;;;;;;;51.03;24.90;;;8.80;99.90;;;;;;5051247;28;20229;-49
2021/03/23 08:44:00;;;;;;;49.03;25.00;;;8.90;99.90;;;;;;5043790;28;20203;-50
2021/03/23 08:46:35;;;;;;;45.77;24.80;;;8.70;99.90;;;;;;5054355;28;20197;-51
2021/03/23 08:49:06;;;;;;;43.30;23.77;;;8.90;99.90;;;;;;5054696;28;20193;-51
2021/03/23 08:51:47;;;;;;;48.60;25.07;;;8.90;99.90;;;;;;5056150;28;20426;-50
2021/03/23 08:54:48;;;;;;;40.33;22.63;;;8.80;99.90;;;;;;5057765;28;20616;-50
2021/03/23 08:57:15;;;;;;;47.97;22.70;;;8.50;99.90;;;;;;5055881;28;20206;-49
2021/03/23 08:59:44;;;;;;;42.23;21.63;;;8.70;99.90;;;;;;5055331;28;20926;-51
2021/03/23 09:02:10;;;;;;;41.77;22.70;;;8.80;99.90;;;;;;5058875;28;20247;-49
2021/03/23 09:04:42;;;;;;;39.87;21.40;;;8.70;99.90;;;;;;5061786;28;20297;-49
2021/03/23 09:07:17;;;;;;;38.90;20.40;;;8.60;99.90;;;;;;5056129;28;20207;-49
2021/03/23 09:09:53;;;;;;;39.27;21.37;;;8.70;99.90;;;;;;5058187;28;20235;-49
2021/03/23 09:12:44;;;;;;;41.53;21.80;;;8.40;99.90;;;;;;5058920;28;20550;-50
2021/03/23 09:15:14;;;;;;;45.97;22.53;;;8.60;99.90;;;;;;5056643;28;20209;-51
2021/03/23 09:17:56;;;;;;;38.53;20.97;;;8.30;99.90;;;;;;5056566;28;20794;-49
2021/03/23 09:20:32;;;;;;;42.77;22.13;;;8.30;99.90;;;;;;5058172;28;20202;-50
2021/03/23 09:23:18;;;;;;;35.97;21.33;;;8.50;99.90;;;;;;5057504;28;20286;-49
2021/03/23 09:25:47;;;;;;;42.27;20.07;;;8.60;99.90;;;;;;5059452;28;20195;-51
2021/03/23 09:28:33;;;;;;;36.27;20.00;;;8.30;99.90;;;;;;5056391;28;20234;-48
2021/03/23 09:31:01;;;;;;;40.13;19.43;;;8.60;99.90;;;;;;5054244;28;20769;-49
2021/03/23 09:33:33;;;;;;;36.27;18.80;;;8.40;99.90;;;;;;5054927;28;20560;-50
2021/03/23 09:36:08;;;;;;;39.90;18.87;;;8.00;99.90;;;;;;5057953;28;20610;-49
2021/03/23 09:38:42;;;;;;;33.70;19.00;;;8.00;99.90;;;;;;5057725;28;20225;-49
2021/03/23 09:41:32;;;;;;;33.17;18.30;;;7.60;99.90;;;;;;5040928;28;20225;-50
2021/03/23 09:44:04;;;;;;;39.77;20.27;;;7.70;99.90;;;;;;5057963;28;20652;-50
2021/03/23 09:46:53;;;;;;;35.43;19.07;;;7.90;99.90;;;;;;5059145;28;20347;-50
2021/03/23 09:49:26;;;;;;;34.10;19.17;;;7.70;99.90;;;;;;5057009;28;20204;-50
2021/03/23 09:52:01;;;;;;;34.50;19.10;;;7.70;99.90;;;;;;5060515;28;20210;-50
2021/03/23 09:54:30;;;;;;;42.80;21.27;;;8.00;99.90;;;;;;5056448;28;20215;-51
2021/03/23 09:56:59;;;;;;;42.13;19.10;;;8.00;99.90;;;;;;5061250;28;20581;-49
2021/03/23 09:59:49;;;;;;;33.97;18.07;;;7.70;99.90;;;;;;5055672;28;20214;-48
2021/03/23 10:02:31;;;;;;;40.23;20.23;;;7.90;99.90;;;;;;5036902;28;20225;-50
2021/03/23 10:05:22;;;;;;;34.97;19.20;;;7.90;99.90;;;;;;5057695;28;20211;-51
2021/03/23 10:07:52;;;;;;;35.57;19.37;;;7.60;99.90;;;;;;5042523;28;20234;-48
2021/03/23 10:10:28;;;;;;;37.27;18.03;;;7.50;99.90;;;;;;5055880;28;20683;-48
2021/03/23 10:12:57;;;;;;;31.83;17.60;;;7.60;99.90;;;;;;5057997;28;20224;-49
2021/03/23 10:15:35;;;;;;;37.77;18.47;;;7.40;99.90;;;;;;5044302;28;20670;-49
2021/03/23 10:18:11;;;;;;;33.60;18.10;;;7.40;99.90;;;;;;5056316;28;20224;-50
2021/03/23 10:20:39;;;;;;;40.67;19.07;;;7.60;99.90;;;;;;5054972;28;20203;-49
2021/03/23 10:23:06;;;;;;;34.03;17.37;;;7.60;99.90;;;;;;5056442;28;20277;-51
2021/03/23 10:25:32;;;;;;;36.57;16.37;;;7.60;99.90;;;;;;5038684;28;20203;-50
2021/03/23 10:28:04;;;;;;;29.97;15.23;;;7.40;99.90;;;;;;5057725;28;20667;-51
2021/03/23 10:30:30;;;;;;;30.10;15.20;;;7.40;99.90;;;;;;5042340;28;20209;-51
2021/03/23 10:33:15;;;;;;;34.97;16.97;;;7.60;99.90;;;;;;5059284;28;20250;-50
2021/03/23 10:35:41;;;;;;;33.20;16.20;;;7.40;99.90;;;;;;5049153;28;20303;-50
2021/03/23 10:38:18;;;;;;;30.97;16.13;;;7.30;99.90;;;;;;5057649;28;20230;-51
2021/03/23 10:40:47;;;;;;;31.57;15.90;;;7.30;99.90;;;;;;5059291;28;20200;-51
2021/03/23 10:43:32;;;;;;;33.53;15.97;;;7.00;99.90;;;;;;5040032;28;20256;-49
2021/03/23 10:46:01;;;;;;;33.57;15.30;;;7.00;99.90;;;;;;5056832;28;20579;-50
2021/03/23 10:48:36;;;;;;;31.80;16.40;;;7.00;99.90;;;;;;5047604;28;20207;-48
2021/03/23 10:51:06;;;;;;;36.63;16.73;;;7.20;99.90;;;;;;5056333;28;20602;-49
2021/03/23 10:53:33;;;;;;;33.77;15.63;;;7.10;99.90;;;;;;5057124;28;20259;-50
2021/03/23 10:55:59;;;;;;;30.67;16.23;;;7.30;99.90;;;;;;5059268;28;20282;-49
2021/03/23 10:58:31;;;;;;;41.87;16.80;;;7.30;99.90;;;;;;5041594;28;20204;-49
2021/03/23 11:01:12;;;;;;;37.40;17.70;;;7.50;99.90;;;;;;5056716;28;20294;-50
2021/03/23 11:03:41;;;;;;;31.53;15.93;;;7.50;99.90;;;;;;5056446;28;20308;-51
2021/03/23 11:06:29;;;;;;;35.77;17.40;;;7.70;99.90;;;;;;5058593;28;20612;-51
2021/03/23 11:08:56;;;;;;;33.37;15.77;;;7.90;99.90;;;;;;5052441;28;20295;-50
2021/03/23 11:11:23;;;;;;;38.67;17.40;;;8.30;99.90;;;;;;5057423;28;20235;-51
2021/03/23 11:13:49;;;;;;;32.37;16.70;;;8.00;99.90;;;;;;5053279;28;20288;-49
2021/03/23 11:16:18;;;;;;;39.70;18.30;;;8.20;99.90;;;;;;5051939;28;20218;-50
2021/03/23 11:18:46;;;;;;;37.27;17.07;;;8.50;99.90;;;;;;5053214;28;20668;-50
2021/03/23 11:21:15;;;;;;;36.50;16.67;;;8.30;99.90;;;;;;5054397;28;20307;-50
2021/03/23 11:23:46;;;;;;;30.30;15.87;;;8.50;99.90;;;;;;5049391;28;20204;-50
2021/03/23 11:26:25;;;;;;;34.47;15.07;;;8.90;99.90;;;;;;5052716;28;20637;-51
2021/03/23 11:28:54;;;;;;;41.53;15.77;;;9.30;99.90;;;;;;5056513;28;20211;-51
2021/03/23 11:31:23;;;;;;;35.40;16.90;;;9.80;99.90;;;;;;5048473;28;20246;-49
2021/03/23 11:33:49;;;;;;;34.83;15.43;;;9.50;99.90;;;;;;5053065;28;20657;-48
2021/03/23 11:36:19;;;;;;;29.60;15.30;;;10.20;99.90;;;;;;5051857;28;20219;-49
2021/03/23 11:39:55;;;;;;;28.20;15.83;;;10.50;99.90;;;;;;5062111;27;20637;-49
2021/03/23 11:42:36;;;;;;;29.40;15.70;;;10.80;99.90;;;;;;5067733;28;20548;-48
2021/03/23 11:45:35;;;;;;;29.83;15.13;;;11.20;99.90;;;;;;5065252;28;20210;-48
2021/03/23 11:48:09;;;;;;;26.50;14.37;;;11.20;99.90;;;;;;5068084;28;20216;-48
2021/03/23 11:50:38;;;;;;;29.07;14.97;;;11.40;99.90;;;;;;5091949;22;20363;-75
2021/03/23 11:54:48;;;;;;;25.00;14.67;;;11.40;99.90;;;;;;5084469;27;20637;-56
2021/03/23 11:57:15;;;;;;;25.67;13.67;;;11.40;99.90;;;;;;5071120;28;20404;-56
2021/03/23 11:59:42;;;;;;;27.97;13.80;;;11.70;99.90;;;;;;5068208;28;20718;-56
2021/03/23 12:02:09;;;;;;;24.17;13.83;;;12.50;99.90;;;;;;5068640;28;20225;-58
2021/03/23 12:04:36;;;;;;;29.50;14.20;;;12.50;99.90;;;;;;5068972;28;21106;-58
2021/03/23 12:07:25;;;;;;;23.30;13.63;;;12.90;99.90;;;;;;5072179;28;20226;-57
2021/03/23 12:10:00;;;;;;;26.47;13.83;;;12.80;99.90;;;;;;5069624;28;20199;-57
2021/03/23 12:12:50;;;;;;;24.03;13.83;;;13.00;99.90;;;;;;5067312;28;20202;-57
2021/03/23 12:15:20;;;;;;;23.00;12.17;;;12.90;99.90;;;;;;5100813;27;20533;-58
2021/03/23 12:17:51;;;;;;;26.23;12.90;;;13.00;99.90;;;;;;5070367;28;20268;-57
2021/03/23 12:20:22;;;;;;;24.13;13.60;;;13.10;99.90;;;;;;5067889;28;20652;-57
2021/03/23 12:22:50;;;;;;;23.30;13.70;;;13.80;99.90;;;;;;5069365;28;20230;-57
2021/03/23 12:25:18;;;;;;;23.47;12.30;;;14.20;99.90;;;;;;5063742;28;21874;-58
2021/03/23 12:27:45;;;;;;;25.00;13.80;;;14.60;99.90;;;;;;5068460;28;20231;-56
2021/03/23 12:30:12;;;;;;;29.63;13.90;;;13.10;99.90;;;;;;5066295;28;20231;-57
2021/03/23 12:32:40;;;;;;;28.73;14.00;;;14.00;99.90;;;;;;5070641;28;20249;-56
2021/03/23 12:35:14;;;;;;;24.17;12.73;;;14.30;99.90;;;;;;5066404;28;20273;-58
2021/03/23 12:37:42;;;;;;;24.33;13.07;;;14.20;99.90;;;;;;5067218;28;20293;-58
2021/03/23 12:40:11;;;;;;;24.17;12.80;;;14.40;99.90;;;;;;5065310;28;20227;-56
2021/03/23 12:42:37;;;;;;;22.83;12.67;;;14.20;99.90;;;;;;5069765;28;20235;-56
2021/03/23 12:45:09;;;;;;;21.23;12.70;;;14.30;99.90;;;;;;5064422;28;20225;-57
2021/03/23 12:47:36;;;;;;;24.37;13.10;;;14.20;99.90;;;;;;5069415;28;20628;-56
2021/03/23 12:50:04;;;;;;;24.10;13.67;;;13.40;99.90;;;;;;5062299;28;20197;-55
2021/03/23 12:52:31;;;;;;;21.53;12.43;;;12.90;99.90;;;;;;5066310;28;20662;-56
2021/03/23 12:54:58;;;;;;;26.63;14.10;;;13.00;99.90;;;;;;5071063;28;20231;-55
2021/03/23 12:57:29;;;;;;;25.53;12.67;;;13.90;99.90;;;;;;5063928;28;20758;-55
2021/03/23 12:59:59;;;;;;;25.43;14.43;;;14.00;99.90;;;;;;5065235;28;20941;-55
2021/03/23 13:02:28;;;;;;;24.43;13.60;;;14.60;99.90;;;;;;5067086;28;20294;-55
2021/03/23 13:04:57;;;;;;;25.40;14.60;;;14.00;99.90;;;;;;5058670;28;20202;-56
2021/03/23 13:07:27;;;;;;;25.27;14.23;;;14.10;99.90;;;;;;5044951;28;20211;-56
2021/03/23 13:09:54;;;;;;;22.37;14.43;;;14.30;99.90;;;;;;5053280;28;20211;-55